sensor_id;sensor_type;location;lat;lon;timestamp;P1;durP1;ratioP1;P2;durP2;ratioP2
27576;SDS011;15011;53.380;10.034;2024-01-15T00:02:51;3.35;;;0.70;;
27576;SDS011;15011;53.380;10.034;2024-01-15T00:07:51;6.30;;;1.43;;
27576;SDS011;15011;53.380;10.034;2024-01-15T00:12:51;5.75;;;1.00;;
27576;SDS011;15011;53.380;10.034;2024-01-15T00:17:52;2.83;;;0.70;;
27576;SDS011;15011;53.380;10.034;2024-01-15T00:22:52;4.23;;;1.33;;
27576;SDS011;15011;53.380;10.034;2024-01-15T00:27:53;3.23;;;0.70;;
27576;SDS011;15011;53.380;10.034;2024-01-15T00:32:53;7.38;;;1.27;;
27576;SDS011;15011;53.380;10.034;2024-01-15T00:37:54;2.40;;;1.25;;
27576;SDS011;15011;53.380;10.034;2024-01-15T00:42:54;4.40;;;0.93;;
27576;SDS011;15011;53.380;10.034;2024-01-15T00:47:55;5.20;;;1.13;;
27576;SDS011;15011;53.380;10.034;2024-01-15T00:52:56;5.43;;;1.20;;
27576;SDS011;15011;53.380;10.034;2024-01-15T00:57:57;2.07;;;1.40;;
27576;SDS011;15011;53.380;10.034;2024-01-15T01:02:57;4.55;;;0.93;;
27576;SDS011;15011;53.380;10.034;2024-01-15T01:07:58;3.10;;;0.80;;
27576;SDS011;15011;53.380;10.034;2024-01-15T01:12:58;7.13;;;1.40;;
27576;SDS011;15011;53.380;10.034;2024-01-15T01:17:58;7.57;;;0.98;;
27576;SDS011;15011;53.380;10.034;2024-01-15T01:22:59;5.93;;;1.10;;
27576;SDS011;15011;53.380;10.034;2024-01-15T01:27:59;5.65;;;0.85;;
27576;SDS011;15011;53.380;10.034;2024-01-15T01:33:00;1.37;;;0.57;;
27576;SDS011;15011;53.380;10.034;2024-01-15T01:38:01;3.05;;;0.90;;
27576;SDS011;15011;53.380;10.034;2024-01-15T01:43:02;4.50;;;0.83;;
27576;SDS011;15011;53.380;10.034;2024-01-15T01:48:04;3.15;;;1.02;;
27576;SDS011;15011;53.380;10.034;2024-01-15T01:53:05;2.60;;;0.45;;
27576;SDS011;15011;53.380;10.034;2024-01-15T01:58:05;5.03;;;0.88;;
27576;SDS011;15011;53.380;10.034;2024-01-15T02:03:06;3.88;;;0.52;;
27576;SDS011;15011;53.380;10.034;2024-01-15T02:08:06;1.98;;;0.77;;
27576;SDS011;15011;53.380;10.034;2024-01-15T02:13:07;3.33;;;0.67;;
27576;SDS011;15011;53.380;10.034;2024-01-15T02:18:07;6.30;;;0.47;;
27576;SDS011;15011;53.380;10.034;2024-01-15T02:23:12;3.03;;;0.80;;
27576;SDS011;15011;53.380;10.034;2024-01-15T02:28:15;2.47;;;0.90;;
27576;SDS011;15011;53.380;10.034;2024-01-15T02:33:16;2.88;;;0.70;;
27576;SDS011;15011;53.380;10.034;2024-01-15T02:38:16;2.30;;;0.38;;
27576;SDS011;15011;53.380;10.034;2024-01-15T02:43:17;1.33;;;0.45;;
27576;SDS011;15011;53.380;10.034;2024-01-15T02:48:19;4.80;;;1.00;;
27576;SDS011;15011;53.380;10.034;2024-01-15T02:53:19;3.27;;;0.50;;
27576;SDS011;15011;53.380;10.034;2024-01-15T02:58:20;2.97;;;0.40;;
27576;SDS011;15011;53.380;10.034;2024-01-15T03:03:21;3.05;;;0.38;;
27576;SDS011;15011;53.380;10.034;2024-01-15T03:08:22;4.63;;;0.70;;
27576;SDS011;15011;53.380;10.034;2024-01-15T03:13:22;2.75;;;1.23;;
27576;SDS011;15011;53.380;10.034;2024-01-15T03:18:23;3.10;;;2.53;;
27576;SDS011;15011;53.380;10.034;2024-01-15T03:23:23;1.33;;;0.70;;
27576;SDS011;15011;53.380;10.034;2024-01-15T03:28:24;6.10;;;0.53;;
27576;SDS011;15011;53.380;10.034;2024-01-15T03:33:24;3.58;;;1.00;;
27576;SDS011;15011;53.380;10.034;2024-01-15T03:38:26;3.17;;;0.73;;
27576;SDS011;15011;53.380;10.034;2024-01-15T03:43:28;4.22;;;0.70;;
27576;SDS011;15011;53.380;10.034;2024-01-15T03:48:29;3.78;;;0.55;;
27576;SDS011;15011;53.380;10.034;2024-01-15T03:53:30;3.17;;;1.38;;
27576;SDS011;15011;53.380;10.034;2024-01-15T03:58:31;6.25;;;1.10;;
27576;SDS011;15011;53.380;10.034;2024-01-15T04:03:31;3.08;;;1.42;;
27576;SDS011;15011;53.380;10.034;2024-01-15T04:08:32;13.00;;;1.50;;
27576;SDS011;15011;53.380;10.034;2024-01-15T04:13:32;11.30;;;1.57;;
27576;SDS011;15011;53.380;10.034;2024-01-15T04:18:33;4.78;;;1.40;;
27576;SDS011;15011;53.380;10.034;2024-01-15T04:23:33;4.67;;;1.33;;
27576;SDS011;15011;53.380;10.034;2024-01-15T04:28:34;4.43;;;1.03;;
27576;SDS011;15011;53.380;10.034;2024-01-15T04:33:34;3.37;;;0.60;;
27576;SDS011;15011;53.380;10.034;2024-01-15T04:38:35;6.93;;;1.23;;
27576;SDS011;15011;53.380;10.034;2024-01-15T04:43:36;8.77;;;1.45;;
27576;SDS011;15011;53.380;10.034;2024-01-15T04:48:37;8.00;;;1.30;;
27576;SDS011;15011;53.380;10.034;2024-01-15T04:53:38;2.40;;;0.93;;
27576;SDS011;15011;53.380;10.034;2024-01-15T04:58:38;1.57;;;0.57;;
27576;SDS011;15011;53.380;10.034;2024-01-15T05:03:39;4.47;;;1.20;;
27576;SDS011;15011;53.380;10.034;2024-01-15T05:08:39;3.57;;;1.00;;
27576;SDS011;15011;53.380;10.034;2024-01-15T05:13:40;6.27;;;0.70;;
27576;SDS011;15011;53.380;10.034;2024-01-15T05:18:40;8.00;;;1.55;;
27576;SDS011;15011;53.380;10.034;2024-01-15T05:23:41;4.93;;;1.23;;
27576;SDS011;15011;53.380;10.034;2024-01-15T05:28:41;4.67;;;1.00;;
27576;SDS011;15011;53.380;10.034;2024-01-15T05:33:42;5.32;;;0.98;;
27576;SDS011;15011;53.380;10.034;2024-01-15T05:38:43;4.23;;;0.93;;
27576;SDS011;15011;53.380;10.034;2024-01-15T05:43:43;4.38;;;0.80;;
27576;SDS011;15011;53.380;10.034;2024-01-15T05:48:44;5.63;;;1.17;;
27576;SDS011;15011;53.380;10.034;2024-01-15T05:53:44;6.67;;;1.00;;
27576;SDS011;15011;53.380;10.034;2024-01-15T05:58:45;5.35;;;0.80;;
27576;SDS011;15011;53.380;10.034;2024-01-15T06:03:45;5.63;;;0.90;;
27576;SDS011;15011;53.380;10.034;2024-01-15T06:08:45;4.13;;;1.03;;
27576;SDS011;15011;53.380;10.034;2024-01-15T06:13:46;4.47;;;1.10;;
27576;SDS011;15011;53.380;10.034;2024-01-15T06:18:46;5.70;;;1.23;;
27576;SDS011;15011;53.380;10.034;2024-01-15T06:23:47;7.22;;;1.42;;
27576;SDS011;15011;53.380;10.034;2024-01-15T06:28:47;4.28;;;1.00;;
27576;SDS011;15011;53.380;10.034;2024-01-15T06:33:48;5.32;;;1.05;;
27576;SDS011;15011;53.380;10.034;2024-01-15T06:38:49;5.43;;;1.33;;
27576;SDS011;15011;53.380;10.034;2024-01-15T06:43:49;7.00;;;1.07;;
27576;SDS011;15011;53.380;10.034;2024-01-15T06:48:49;7.03;;;1.20;;
27576;SDS011;15011;53.380;10.034;2024-01-15T06:53:50;6.27;;;1.33;;
27576;SDS011;15011;53.380;10.034;2024-01-15T06:58:50;8.10;;;0.97;;
27576;SDS011;15011;53.380;10.034;2024-01-15T07:03:51;3.50;;;0.75;;
27576;SDS011;15011;53.380;10.034;2024-01-15T07:08:51;5.30;;;0.87;;
27576;SDS011;15011;53.380;10.034;2024-01-15T07:13:52;5.60;;;0.90;;
27576;SDS011;15011;53.380;10.034;2024-01-15T07:18:52;2.10;;;0.70;;
27576;SDS011;15011;53.380;10.034;2024-01-15T07:23:53;4.83;;;1.00;;
27576;SDS011;15011;53.380;10.034;2024-01-15T07:28:53;3.30;;;0.60;;
27576;SDS011;15011;53.380;10.034;2024-01-15T07:33:53;6.57;;;0.80;;
27576;SDS011;15011;53.380;10.034;2024-01-15T07:38:54;3.93;;;0.83;;
27576;SDS011;15011;53.380;10.034;2024-01-15T07:43:54;3.70;;;0.90;;
27576;SDS011;15011;53.380;10.034;2024-01-15T07:48:55;5.33;;;0.60;;
27576;SDS011;15011;53.380;10.034;2024-01-15T07:53:57;3.88;;;0.70;;
27576;SDS011;15011;53.380;10.034;2024-01-15T07:58:58;4.75;;;0.93;;
27576;SDS011;15011;53.380;10.034;2024-01-15T08:03:59;4.38;;;0.82;;
27576;SDS011;15011;53.380;10.034;2024-01-15T08:09:00;2.20;;;0.40;;
27576;SDS011;15011;53.380;10.034;2024-01-15T08:14:00;0.33;;;0.33;;
27576;SDS011;15011;53.380;10.034;2024-01-15T08:19:01;5.65;;;1.20;;
27576;SDS011;15011;53.380;10.034;2024-01-15T08:24:02;2.80;;;0.50;;
27576;SDS011;15011;53.380;10.034;2024-01-15T08:29:03;2.47;;;0.95;;
27576;SDS011;15011;53.380;10.034;2024-01-15T08:34:03;1.42;;;0.30;;
27576;SDS011;15011;53.380;10.034;2024-01-15T08:39:05;2.92;;;0.75;;
27576;SDS011;15011;53.380;10.034;2024-01-15T08:44:05;3.05;;;0.82;;
27576;SDS011;15011;53.380;10.034;2024-01-15T08:49:06;2.13;;;0.30;;
27576;SDS011;15011;53.380;10.034;2024-01-15T08:54:06;2.53;;;0.93;;
27576;SDS011;15011;53.380;10.034;2024-01-15T08:59:08;4.13;;;0.73;;
27576;SDS011;15011;53.380;10.034;2024-01-15T09:04:09;0.77;;;0.50;;
27576;SDS011;15011;53.380;10.034;2024-01-15T09:09:09;1.37;;;0.60;;
27576;SDS011;15011;53.380;10.034;2024-01-15T09:14:10;1.45;;;0.22;;
27576;SDS011;15011;53.380;10.034;2024-01-15T09:19:10;3.10;;;0.47;;
27576;SDS011;15011;53.380;10.034;2024-01-15T09:24:11;2.63;;;0.70;;
27576;SDS011;15011;53.380;10.034;2024-01-15T09:29:11;2.27;;;0.47;;
27576;SDS011;15011;53.380;10.034;2024-01-15T09:34:12;0.98;;;0.65;;
27576;SDS011;15011;53.380;10.034;2024-01-15T09:39:12;4.03;;;0.43;;
27576;SDS011;15011;53.380;10.034;2024-01-15T09:44:13;1.07;;;0.40;;
27576;SDS011;15011;53.380;10.034;2024-01-15T09:49:14;3.05;;;0.60;;
27576;SDS011;15011;53.380;10.034;2024-01-15T09:54:15;5.03;;;0.73;;
27576;SDS011;15011;53.380;10.034;2024-01-15T09:59:17;2.67;;;0.70;;
27576;SDS011;15011;53.380;10.034;2024-01-15T10:04:18;3.63;;;0.40;;
27576;SDS011;15011;53.380;10.034;2024-01-15T10:09:19;5.90;;;0.90;;
27576;SDS011;15011;53.380;10.034;2024-01-15T10:14:19;1.00;;;0.45;;
27576;SDS011;15011;53.380;10.034;2024-01-15T10:19:19;2.17;;;0.27;;
27576;SDS011;15011;53.380;10.034;2024-01-15T10:24:20;1.37;;;0.30;;
27576;SDS011;15011;53.380;10.034;2024-01-15T10:29:20;2.27;;;0.37;;
27576;SDS011;15011;53.380;10.034;2024-01-15T10:34:21;2.63;;;1.13;;
27576;SDS011;15011;53.380;10.034;2024-01-15T10:39:22;0.70;;;0.40;;
27576;SDS011;15011;53.380;10.034;2024-01-15T10:44:23;0.65;;;0.45;;
27576;SDS011;15011;53.380;10.034;2024-01-15T10:49:23;0.20;;;0.20;;
27576;SDS011;15011;53.380;10.034;2024-01-15T10:54:26;0.25;;;0.25;;
27576;SDS011;15011;53.380;10.034;2024-01-15T10:59:27;0.90;;;0.50;;
27576;SDS011;15011;53.380;10.034;2024-01-15T11:04:29;1.10;;;0.30;;
27576;SDS011;15011;53.380;10.034;2024-01-15T11:09:32;1.02;;;0.25;;
27576;SDS011;15011;53.380;10.034;2024-01-15T11:14:44;1.60;;;0.30;;
27576;SDS011;15011;53.380;10.034;2024-01-15T11:19:47;2.53;;;0.80;;
27576;SDS011;15011;53.380;10.034;2024-01-15T11:24:50;1.42;;;0.68;;
27576;SDS011;15011;53.380;10.034;2024-01-15T11:29:51;1.77;;;0.60;;
27576;SDS011;15011;53.380;10.034;2024-01-15T11:35:03;2.58;;;1.30;;
27576;SDS011;15011;53.380;10.034;2024-01-15T11:40:04;3.20;;;0.82;;
27576;SDS011;15011;53.380;10.034;2024-01-15T11:45:10;3.17;;;0.70;;
27576;SDS011;15011;53.380;10.034;2024-01-15T11:50:11;4.90;;;0.68;;
27576;SDS011;15011;53.380;10.034;2024-01-15T12:00:30;0.93;;;0.70;;
27576;SDS011;15011;53.380;10.034;2024-01-15T12:05:31;0.43;;;0.40;;
27576;SDS011;15011;53.380;10.034;2024-01-15T12:10:31;1.70;;;0.40;;
27576;SDS011;15011;53.380;10.034;2024-01-15T12:15:32;0.40;;;0.40;;
27576;SDS011;15011;53.380;10.034;2024-01-15T12:20:32;0.32;;;0.13;;
27576;SDS011;15011;53.380;10.034;2024-01-15T12:25:34;0.85;;;0.30;;
27576;SDS011;15011;53.380;10.034;2024-01-15T12:30:34;1.30;;;0.10;;
27576;SDS011;15011;53.380;10.034;2024-01-15T12:35:36;0.20;;;0.15;;
27576;SDS011;15011;53.380;10.034;2024-01-15T12:40:37;0.10;;;0.10;;
27576;SDS011;15011;53.380;10.034;2024-01-15T12:45:37;4.10;;;0.33;;
27576;SDS011;15011;53.380;10.034;2024-01-15T12:50:38;0.63;;;0.20;;
27576;SDS011;15011;53.380;10.034;2024-01-15T12:55:38;0.70;;;0.60;;
27576;SDS011;15011;53.380;10.034;2024-01-15T13:00:38;3.93;;;0.87;;
27576;SDS011;15011;53.380;10.034;2024-01-15T13:05:40;4.68;;;2.75;;
27576;SDS011;15011;53.380;10.034;2024-01-15T13:10:41;2.78;;;1.45;;
27576;SDS011;15011;53.380;10.034;2024-01-15T13:15:42;3.10;;;0.63;;
27576;SDS011;15011;53.380;10.034;2024-01-15T13:20:42;0.93;;;0.50;;
27576;SDS011;15011;53.380;10.034;2024-01-15T13:25:43;1.50;;;0.97;;
27576;SDS011;15011;53.380;10.034;2024-01-15T13:30:44;4.60;;;1.25;;
27576;SDS011;15011;53.380;10.034;2024-01-15T13:35:44;4.40;;;1.63;;
27576;SDS011;15011;53.380;10.034;2024-01-15T13:40:45;1.77;;;1.20;;
27576;SDS011;15011;53.380;10.034;2024-01-15T13:45:45;1.30;;;0.80;;
27576;SDS011;15011;53.380;10.034;2024-01-15T13:50:46;0.52;;;0.45;;
27576;SDS011;15011;53.380;10.034;2024-01-15T13:55:47;1.20;;;0.70;;
27576;SDS011;15011;53.380;10.034;2024-01-15T14:00:47;9.07;;;5.82;;
27576;SDS011;15011;53.380;10.034;2024-01-15T14:05:48;2.47;;;1.73;;
27576;SDS011;15011;53.380;10.034;2024-01-15T14:10:49;2.38;;;1.20;;
27576;SDS011;15011;53.380;10.034;2024-01-15T14:15:50;1.00;;;0.90;;
27576;SDS011;15011;53.380;10.034;2024-01-15T14:20:50;2.23;;;0.63;;
27576;SDS011;15011;53.380;10.034;2024-01-15T14:25:50;1.57;;;0.70;;
27576;SDS011;15011;53.380;10.034;2024-01-15T14:30:51;1.20;;;1.00;;
27576;SDS011;15011;53.380;10.034;2024-01-15T14:35:52;2.00;;;0.65;;
27576;SDS011;15011;53.380;10.034;2024-01-15T14:40:53;1.17;;;0.50;;
27576;SDS011;15011;53.380;10.034;2024-01-15T14:45:53;3.47;;;0.50;;
27576;SDS011;15011;53.380;10.034;2024-01-15T14:50:54;3.13;;;0.98;;
27576;SDS011;15011;53.380;10.034;2024-01-15T14:55:54;1.17;;;0.60;;
27576;SDS011;15011;53.380;10.034;2024-01-15T15:00:55;1.00;;;0.90;;
27576;SDS011;15011;53.380;10.034;2024-01-15T15:05:55;1.95;;;0.65;;
27576;SDS011;15011;53.380;10.034;2024-01-15T15:10:55;1.40;;;0.50;;
27576;SDS011;15011;53.380;10.034;2024-01-15T15:15:56;1.50;;;0.50;;
27576;SDS011;15011;53.380;10.034;2024-01-15T15:20:57;2.47;;;1.30;;
27576;SDS011;15011;53.380;10.034;2024-01-15T15:25:57;13.93;;;6.90;;
27576;SDS011;15011;53.380;10.034;2024-01-15T15:30:59;2.07;;;1.60;;
27576;SDS011;15011;53.380;10.034;2024-01-15T15:35:59;2.63;;;1.48;;
27576;SDS011;15011;53.380;10.034;2024-01-15T15:41:04;2.30;;;1.75;;
27576;SDS011;15011;53.380;10.034;2024-01-15T15:46:05;2.60;;;1.67;;
27576;SDS011;15011;53.380;10.034;2024-01-15T15:51:05;2.13;;;1.55;;
27576;SDS011;15011;53.380;10.034;2024-01-15T15:56:06;7.30;;;1.90;;
27576;SDS011;15011;53.380;10.034;2024-01-15T16:01:06;3.15;;;1.75;;
27576;SDS011;15011;53.380;10.034;2024-01-15T16:06:07;3.33;;;2.33;;
27576;SDS011;15011;53.380;10.034;2024-01-15T16:11:07;6.07;;;2.70;;
27576;SDS011;15011;53.380;10.034;2024-01-15T16:16:08;3.93;;;1.63;;
27576;SDS011;15011;53.380;10.034;2024-01-15T16:21:08;9.03;;;3.30;;
27576;SDS011;15011;53.380;10.034;2024-01-15T16:26:09;5.13;;;3.10;;
27576;SDS011;15011;53.380;10.034;2024-01-15T16:31:09;6.70;;;3.73;;
27576;SDS011;15011;53.380;10.034;2024-01-15T16:36:10;5.60;;;3.60;;
27576;SDS011;15011;53.380;10.034;2024-01-15T16:41:10;5.57;;;3.27;;
27576;SDS011;15011;53.380;10.034;2024-01-15T16:46:11;7.70;;;3.40;;
27576;SDS011;15011;53.380;10.034;2024-01-15T16:51:11;7.27;;;3.67;;
27576;SDS011;15011;53.380;10.034;2024-01-15T16:56:12;6.28;;;2.90;;
27576;SDS011;15011;53.380;10.034;2024-01-15T17:01:12;6.37;;;3.30;;
27576;SDS011;15011;53.380;10.034;2024-01-15T17:06:13;7.18;;;3.63;;
27576;SDS011;15011;53.380;10.034;2024-01-15T17:11:13;8.17;;;3.43;;
27576;SDS011;15011;53.380;10.034;2024-01-15T17:16:13;7.93;;;3.57;;
27576;SDS011;15011;53.380;10.034;2024-01-15T17:21:14;6.55;;;3.60;;
27576;SDS011;15011;53.380;10.034;2024-01-15T17:26:15;6.00;;;3.15;;
27576;SDS011;15011;53.380;10.034;2024-01-15T17:31:15;11.47;;;4.50;;
27576;SDS011;15011;53.380;10.034;2024-01-15T17:36:16;8.13;;;3.77;;
27576;SDS011;15011;53.380;10.034;2024-01-15T17:41:17;6.43;;;3.15;;
27576;SDS011;15011;53.380;10.034;2024-01-15T17:46:17;9.57;;;4.13;;
27576;SDS011;15011;53.380;10.034;2024-01-15T17:51:18;5.63;;;3.33;;
27576;SDS011;15011;53.380;10.034;2024-01-15T17:56:18;9.38;;;4.90;;
27576;SDS011;15011;53.380;10.034;2024-01-15T18:01:19;6.93;;;3.27;;
27576;SDS011;15011;53.380;10.034;2024-01-15T18:06:19;8.00;;;2.73;;
27576;SDS011;15011;53.380;10.034;2024-01-15T18:11:20;6.30;;;2.58;;
27576;SDS011;15011;53.380;10.034;2024-01-15T18:16:21;4.30;;;1.85;;
27576;SDS011;15011;53.380;10.034;2024-01-15T18:21:22;6.03;;;2.70;;
27576;SDS011;15011;53.380;10.034;2024-01-15T18:26:23;4.90;;;2.50;;
27576;SDS011;15011;53.380;10.034;2024-01-15T18:31:23;3.93;;;1.93;;
27576;SDS011;15011;53.380;10.034;2024-01-15T18:36:24;7.03;;;2.30;;
27576;SDS011;15011;53.380;10.034;2024-01-15T18:41:24;1.70;;;0.93;;
27576;SDS011;15011;53.380;10.034;2024-01-15T18:46:25;3.28;;;1.92;;
27576;SDS011;15011;53.380;10.034;2024-01-15T18:51:25;3.07;;;1.60;;
27576;SDS011;15011;53.380;10.034;2024-01-15T18:56:25;1.07;;;0.97;;
27576;SDS011;15011;53.380;10.034;2024-01-15T19:01:26;1.77;;;1.30;;
27576;SDS011;15011;53.380;10.034;2024-01-15T19:06:30;3.20;;;1.95;;
27576;SDS011;15011;53.380;10.034;2024-01-15T19:11:31;5.78;;;2.05;;
27576;SDS011;15011;53.380;10.034;2024-01-15T19:16:31;3.38;;;2.00;;
27576;SDS011;15011;53.380;10.034;2024-01-15T19:21:32;3.50;;;2.00;;
27576;SDS011;15011;53.380;10.034;2024-01-15T19:26:33;2.45;;;1.05;;
27576;SDS011;15011;53.380;10.034;2024-01-15T19:31:34;3.92;;;2.20;;
27576;SDS011;15011;53.380;10.034;2024-01-15T19:36:36;3.42;;;1.65;;
27576;SDS011;15011;53.380;10.034;2024-01-15T19:41:37;1.90;;;1.17;;
27576;SDS011;15011;53.380;10.034;2024-01-15T19:46:38;2.78;;;1.48;;
27576;SDS011;15011;53.380;10.034;2024-01-15T19:51:39;2.05;;;1.55;;
27576;SDS011;15011;53.380;10.034;2024-01-15T19:56:40;0.73;;;0.70;;
27576;SDS011;15011;53.380;10.034;2024-01-15T20:01:40;3.77;;;1.30;;
27576;SDS011;15011;53.380;10.034;2024-01-15T20:06:41;2.30;;;1.57;;
27576;SDS011;15011;53.380;10.034;2024-01-15T20:11:41;3.00;;;1.70;;
27576;SDS011;15011;53.380;10.034;2024-01-15T20:16:44;3.30;;;1.88;;
27576;SDS011;15011;53.380;10.034;2024-01-15T20:21:44;1.40;;;1.20;;
27576;SDS011;15011;53.380;10.034;2024-01-15T20:26:45;5.43;;;2.73;;
27576;SDS011;15011;53.380;10.034;2024-01-15T20:31:45;3.10;;;2.30;;
27576;SDS011;15011;53.380;10.034;2024-01-15T20:36:47;4.15;;;2.50;;
27576;SDS011;15011;53.380;10.034;2024-01-15T20:41:48;5.53;;;3.20;;
27576;SDS011;15011;53.380;10.034;2024-01-15T20:46:49;8.52;;;2.80;;
27576;SDS011;15011;53.380;10.034;2024-01-15T20:51:50;6.05;;;3.40;;
27576;SDS011;15011;53.380;10.034;2024-01-15T20:56:50;6.53;;;3.55;;
27576;SDS011;15011;53.380;10.034;2024-01-15T21:01:51;6.07;;;3.67;;
27576;SDS011;15011;53.380;10.034;2024-01-15T21:06:51;3.42;;;2.50;;
27576;SDS011;15011;53.380;10.034;2024-01-15T21:11:52;5.93;;;2.83;;
27576;SDS011;15011;53.380;10.034;2024-01-15T21:16:52;8.07;;;3.10;;
27576;SDS011;15011;53.380;10.034;2024-01-15T21:21:53;6.27;;;2.80;;
27576;SDS011;15011;53.380;10.034;2024-01-15T21:26:53;3.53;;;2.60;;
27576;SDS011;15011;53.380;10.034;2024-01-15T21:31:54;5.35;;;2.50;;
27576;SDS011;15011;53.380;10.034;2024-01-15T21:36:55;9.80;;;2.97;;
27576;SDS011;15011;53.380;10.034;2024-01-15T21:41:55;3.97;;;2.47;;
27576;SDS011;15011;53.380;10.034;2024-01-15T21:46:56;5.05;;;2.30;;
27576;SDS011;15011;53.380;10.034;2024-01-15T21:51:56;5.13;;;2.27;;
27576;SDS011;15011;53.380;10.034;2024-01-15T21:56:57;4.73;;;2.07;;
27576;SDS011;15011;53.380;10.034;2024-01-15T22:01:57;6.77;;;2.67;;
27576;SDS011;15011;53.380;10.034;2024-01-15T22:06:57;5.15;;;2.15;;
27576;SDS011;15011;53.380;10.034;2024-01-15T22:11:58;7.13;;;2.13;;
27576;SDS011;15011;53.380;10.034;2024-01-15T22:16:59;6.45;;;2.00;;
27576;SDS011;15011;53.380;10.034;2024-01-15T22:21:59;2.63;;;1.70;;
27576;SDS011;15011;53.380;10.034;2024-01-15T22:27:00;3.97;;;2.42;;
27576;SDS011;15011;53.380;10.034;2024-01-15T22:32:00;6.50;;;2.27;;
27576;SDS011;15011;53.380;10.034;2024-01-15T22:37:01;6.33;;;2.97;;
27576;SDS011;15011;53.380;10.034;2024-01-15T22:42:01;5.87;;;3.30;;
27576;SDS011;15011;53.380;10.034;2024-01-15T22:47:01;6.90;;;4.20;;
27576;SDS011;15011;53.380;10.034;2024-01-15T22:52:02;6.85;;;3.88;;
27576;SDS011;15011;53.380;10.034;2024-01-15T22:57:03;4.63;;;2.92;;
27576;SDS011;15011;53.380;10.034;2024-01-15T23:02:04;7.13;;;3.40;;
27576;SDS011;15011;53.380;10.034;2024-01-15T23:07:04;3.87;;;2.60;;
27576;SDS011;15011;53.380;10.034;2024-01-15T23:12:05;4.82;;;3.03;;
27576;SDS011;15011;53.380;10.034;2024-01-15T23:17:07;6.63;;;3.45;;
27576;SDS011;15011;53.380;10.034;2024-01-15T23:22:07;4.57;;;2.90;;
27576;SDS011;15011;53.380;10.034;2024-01-15T23:27:08;6.27;;;3.47;;
27576;SDS011;15011;53.380;10.034;2024-01-15T23:32:10;7.82;;;3.58;;
27576;SDS011;15011;53.380;10.034;2024-01-15T23:37:11;5.50;;;3.72;;
27576;SDS011;15011;53.380;10.034;2024-01-15T23:42:12;6.43;;;3.63;;
27576;SDS011;15011;53.380;10.034;2024-01-15T23:47:12;6.50;;;3.93;;
27576;SDS011;15011;53.380;10.034;2024-01-15T23:52:12;6.43;;;3.93;;
27576;SDS011;15011;53.380;10.034;2024-01-15T23:57:13;8.83;;;3.90;;
